Latest Weather Observations for Wilsons Promontory

IDV60801

Issued at 9:02 am EST Tuesday 5 May 2015 (issued every 30 minutes, with the page automatically refreshed every 10 minutes)

About weather observations | Map of weather stations | Latest weather observations for VIC | Other Formats
Station Details ID: 085096 Name: WILSONS PROMONTORY LIGHTHOUSE Lat: -39.13 Lon: 146.42 Height: 95.0 m
Data from the previous 72 hours. | See also: Recent months at Wilsons Promontory
Date/Time
EST
Temp
°C
App
Temp
°C
Dew
Point
Rel
Hum
%
Delta-T
°C
Wind Press
QNH
hPa
Press
MSL
hPa
Rain
since 9 am
mm
Dir
 
Spd
km/h
Gust
km/h
Spd
kts
Gust
kts
05/09:00am 15.2 9.8 11.0 76 2.3 N 30 50 16 27 997.1 997.0 1.0
05/08:30am 15.8 9.8 10.8 72 2.7 N 33 69 18 37 996.9 - 0.8
05/08:17am 15.8 8.6 10.6 71 2.8 NNW 39 87 21 47 996.9 - 0.8
05/08:00am 16.1 10.0 10.6 70 2.9 NNW 33 63 18 34 997.2 - 0.8
05/07:39am 16.3 11.1 10.2 67 3.2 NNW 28 54 15 29 997.2 - 0.8
05/07:30am 16.6 12.5 10.2 66 3.4 N 22 43 12 23 997.5 - 0.8
05/07:00am 16.7 11.1 10.1 65 3.5 NNW 30 59 16 32 997.6 - 0.8
05/06:30am 16.3 10.7 10.2 67 3.2 NNW 30 56 16 30 998.2 - 0.6
05/06:28am 16.3 11.1 10.2 67 3.3 N 28 56 15 30 997.9 - 0.6
05/06:00am 17.5 15.7 9.4 59 4.3 NE 9 15 5 8 999.1 999.1 0.4
05/05:42am 19.0 13.4 8.6 51 5.4 WNW 28 54 15 29 998.9 - 0.2
05/05:30am 19.4 15.1 7.8 47 6.0 N 20 50 11 27 999.1 - 0.2
05/05:00am 19.7 16.0 7.8 46 6.1 N 17 39 9 21 999.3 - 0.2
05/04:30am 18.4 15.8 13.3 72 2.9 NNE 19 37 10 20 999.0 - 0.2
05/04:00am 16.1 11.8 13.2 83 1.6 NE 28 37 15 20 999.1 - 0.2
05/03:30am 15.6 12.3 12.9 84 1.5 NNE 22 28 12 15 999.6 - 0.2
05/03:00am 15.6 12.6 12.5 82 1.7 NNE 20 26 11 14 1000.5 1000.5 0.2
05/02:30am 15.1 12.8 13.0 87 1.2 NNE 17 20 9 11 1001.4 - 0.2
05/02:00am 15.9 14.6 12.5 80 1.9 NE 11 15 6 8 1002.3 - 0.2
05/01:30am 15.9 16.1 14.3 90 0.9 ENE 6 11 3 6 1003.3 - 0.2
05/01:00am 15.6 15.7 14.5 93 0.6 NNE 7 9 4 5 1003.6 - 0.0
05/12:30am 15.8 15.1 14.3 91 0.9 NNE 11 13 6 7 1004.1 - 0.0
05/12:00am 16.0 15.2 14.0 88 1.1 NNE 11 15 6 8 1004.5 1004.5 0.0
 
Date/Time
EST
Temp
°C
App
Temp
°C
Dew
Point
Rel
Hum
%
Delta-T
°C
Wind Press
QNH
hPa
Press
MSL
hPa
Rain
since 9 am
mm
Dir
 
Spd
km/h
Gust
km/h
Spd
kts
Gust
kts
04/11:30pm 15.9 12.6 13.9 88 1.1 NNE 24 32 13 17 1004.0 - 0.0
04/11:00pm 16.3 13.3 13.6 84 1.5 NNE 22 33 12 18 1004.3 - 0.0
04/10:41pm 16.3 12.1 13.4 83 1.6 NNE 28 46 15 25 1004.2 - 0.0
04/10:30pm 16.3 11.6 13.2 82 1.7 NNE 30 43 16 23 1004.3 - 0.0
04/10:00pm 16.5 12.1 11.6 73 2.7 NNE 26 41 14 22 1005.0 - 0.0
04/09:30pm 16.1 11.9 12.5 79 2.0 NNE 26 39 14 21 1005.9 - 0.0
04/09:00pm 15.6 12.4 14.3 92 0.7 NNE 24 35 13 19 1006.1 1006.0 0.0
04/08:30pm 15.1 11.8 14.1 94 0.6 NNE 24 33 13 18 1006.7 - 0.0
04/08:00pm 15.3 12.3 13.8 91 0.8 NNE 22 32 12 17 1007.6 - 0.0
04/07:30pm 15.6 12.3 12.7 83 1.6 NNE 22 33 12 18 1007.8 - 0.0
04/07:00pm 15.8 11.6 12.4 80 1.9 NNE 26 37 14 20 1008.1 - 0.0
04/06:30pm 15.4 12.5 13.9 91 0.8 NNE 22 32 12 17 1008.0 - 0.0
04/06:00pm 14.8 12.0 14.2 96 0.3 NNE 22 26 12 14 1008.4 1008.4 0.0
04/05:30pm 14.9 12.1 14.3 96 0.3 NNE 22 30 12 16 1008.6 - 0.0
04/05:00pm 15.1 12.3 14.3 95 0.5 NNE 22 30 12 16 1008.9 - 0.0
04/04:30pm 15.4 12.6 14.3 93 0.6 NNE 22 30 12 16 1009.2 - 0.0
04/04:00pm 15.8 12.6 14.3 91 0.9 NNE 24 30 13 16 1009.6 - 0.0
04/03:30pm 16.3 13.9 14.5 89 1.0 NNE 20 26 11 14 1009.7 - 0.0
04/03:00pm 16.6 15.2 14.6 88 1.2 NNE 15 20 8 11 1010.0 1010.0 0.0
04/02:30pm 16.2 14.9 14.9 92 0.8 NNE 15 20 8 11 1010.3 - 0.0
04/02:00pm 16.2 13.7 15.2 94 0.6 NNE 22 28 12 15 1010.7 - 0.0
04/01:30pm 15.6 13.2 14.5 93 0.6 NNE 20 26 11 14 1011.1 - 0.0
04/01:00pm 15.7 13.4 14.2 91 0.9 NNE 19 24 10 13 1011.8 - 0.0
04/12:30pm 15.7 14.1 13.9 89 1.0 NNE 15 22 8 12 1012.5 - 0.0
04/12:00pm 16.2 14.9 13.7 85 1.4 NNE 13 20 7 11 1013.0 1013.0 0.0
04/11:30am 17.1 13.9 14.2 83 1.7 NNE 24 28 13 15 1013.4 - 0.0
04/11:00am 16.5 13.6 14.0 85 1.4 NNE 22 30 12 16 1013.8 - 0.0
04/10:30am 16.2 13.1 14.6 90 0.9 NNE 24 32 13 17 1014.0 - 0.0
04/10:00am 15.2 12.4 14.4 95 0.5 NNE 22 26 12 14 1014.5 - 0.0
04/09:30am 15.1 13.7 14.6 97 0.3 NE 15 19 8 10 1014.8 - 0.0
04/09:00am 15.2 13.9 14.9 98 0.2 NE 15 17 8 9 1015.0 1015.0 0.0
04/08:30am 14.0 13.1 13.8 99 0.1 NNE 11 13 6 7 1015.2 - 0.0
04/08:00am 13.6 13.0 13.4 99 0.1 NNE 9 13 5 7 1015.2 - 0.0
04/07:30am 13.4 12.7 13.2 99 0.1 NNE 9 13 5 7 1015.2 - 0.0
04/07:00am 13.0 11.7 12.5 97 0.3 NNE 11 15 6 8 1014.9 - 0.0
04/06:30am 13.1 12.2 12.5 96 0.3 NNE 9 11 5 6 1015.1 - 0.0
04/06:00am 13.0 11.2 12.2 95 0.4 NNE 13 15 7 8 1015.1 1015.1 0.0
04/05:30am 13.0 11.2 12.2 95 0.4 NNE 13 15 7 8 1015.2 - 0.0
04/05:00am 13.0 11.2 12.2 95 0.4 NNE 13 15 7 8 1015.2 - 0.0
04/04:30am 13.1 11.4 12.3 95 0.4 NNE 13 15 7 8 1015.4 - 0.0
04/04:00am 13.0 10.5 12.2 95 0.4 NNE 17 20 9 11 1015.4 - 0.0
04/03:30am 13.1 11.4 12.5 96 0.3 N 13 17 7 9 1015.7 - 0.0
04/03:00am 13.0 11.2 12.2 95 0.4 N 13 17 7 9 1015.9 1015.9 0.0
04/02:30am 13.0 11.2 12.1 94 0.5 NNE 13 17 7 9 1016.4 - 0.0
04/02:00am 13.3 11.5 12.2 93 0.6 NNE 13 17 7 9 1016.6 - 0.0
04/01:30am 13.5 12.5 12.2 92 0.7 NNE 9 11 5 6 1017.2 - 0.0
04/01:00am 13.7 12.7 12.4 92 0.7 NNE 9 11 5 6 1017.5 - 0.0
04/12:30am 13.5 12.2 12.4 93 0.6 NNE 11 13 6 7 1017.7 - 0.0
04/12:00am 13.3 12.8 12.2 93 0.6 NNE 6 7 3 4 1017.6 1017.6 0.0
 
Date/Time
EST
Temp
°C
App
Temp
°C
Dew
Point
Rel
Hum
%
Delta-T
°C
Wind Press
QNH
hPa
Press
MSL
hPa
Rain
since 9 am
mm
Dir
 
Spd
km/h
Gust
km/h
Spd
kts
Gust
kts
03/11:30pm 13.3 12.7 12.4 94 0.5 N 7 11 4 6 1017.9 - 0.0
03/11:00pm 13.6 13.3 12.7 94 0.5 N 6 9 3 5 1018.1 - 0.0
03/10:30pm 13.4 12.9 12.5 94 0.5 NW 7 11 4 6 1018.6 - 0.0
03/10:00pm 13.6 13.3 12.8 95 0.4 N 6 9 3 5 1018.8 - 0.0
03/09:30pm 13.7 13.9 12.9 95 0.4 N 4 6 2 3 1018.9 - 0.0
03/09:00pm 14.0 12.1 13.1 94 0.5 W 15 22 8 12 1018.8 1018.8 0.0
03/08:30pm 14.3 10.4 13.3 94 0.6 SW 26 32 14 17 1018.5 - 0.0
03/08:00pm 14.1 11.8 13.1 94 0.6 W 17 20 9 11 1018.5 - 0.0
03/07:30pm 14.3 10.0 13.3 94 0.6 SW 28 33 15 18 1018.1 - 0.0
03/07:00pm 14.3 10.8 13.3 94 0.6 SW 24 32 13 17 1017.9 - 0.0
03/06:30pm 14.4 10.5 13.4 94 0.6 SW 26 33 14 18 1017.7 - 0.0
03/06:00pm 14.5 12.3 13.4 93 0.6 W 17 22 9 12 1017.6 1017.6 0.0
03/05:30pm 14.6 11.9 13.5 93 0.6 W 20 28 11 15 1017.6 - 0.0
03/05:00pm 14.8 9.7 13.2 90 0.9 WSW 32 43 17 23 1017.5 - 0.0
03/04:30pm 15.3 12.5 13.1 87 1.2 W 20 28 11 15 1017.6 - 0.0
03/04:00pm 15.4 12.2 13.1 86 1.3 W 22 28 12 15 1017.4 - 0.0
03/03:30pm 15.7 12.4 12.8 83 1.6 W 22 30 12 16 1017.4 - 0.0
03/03:00pm 16.0 12.5 13.5 85 1.4 W 24 32 13 17 1017.2 1017.2 0.0
03/02:30pm 15.5 11.9 13.2 86 1.3 W 24 37 13 20 1017.2 - 0.0
03/02:00pm 16.3 11.5 13.0 81 1.8 W 30 43 16 23 1017.0 - 0.0
03/01:30pm 16.4 10.7 12.9 80 2.0 W 35 50 19 27 1017.1 - 0.0
03/01:00pm 16.6 13.1 13.3 81 1.9 W 24 39 13 21 1017.4 - 0.0
03/12:30pm 16.5 13.7 13.2 81 1.9 W 20 30 11 16 1018.1 - 0.0
03/12:00pm 16.2 12.9 12.7 80 1.9 WNW 22 35 12 19 1018.4 1018.4 0.0
03/11:30am 16.7 13.4 12.8 78 2.2 W 22 32 12 17 1018.3 - 0.0
03/11:00am 16.5 12.6 13.4 82 1.7 NW 26 33 14 18 1018.4 - 0.0
03/10:30am 16.0 13.9 13.5 85 1.4 WNW 17 26 9 14 1018.8 - 0.0
03/10:00am 15.6 13.5 13.6 88 1.1 NW 17 22 9 12 1019.0 - 0.0
03/09:30am 15.5 13.8 13.5 88 1.1 NW 15 22 8 12 1019.0 - 0.0
03/09:00am 15.7 13.8 14.2 91 0.9 NW 17 24 9 13 1018.9 1018.9 6.2
03/08:30am 14.6 12.4 13.3 92 0.7 WNW 17 22 9 12 1019.0 - 6.2
03/08:00am 14.7 12.1 13.2 91 0.8 WNW 19 24 10 13 1018.7 - 6.2
03/07:30am 14.6 11.5 13.3 92 0.7 W 22 35 12 19 1018.1 - 6.2
03/07:00am 14.5 11.8 13.4 93 0.6 W 20 32 11 17 1017.8 - 6.2
03/06:30am 14.4 10.5 13.3 93 0.6 WNW 26 33 14 18 1017.4 - 6.2
03/06:00am 14.3 10.0 13.2 93 0.6 WNW 28 37 15 20 1017.0 1017.0 6.2
03/05:30am 14.3 10.0 13.2 93 0.6 WNW 28 43 15 23 1016.9 - 6.2
03/05:00am 14.7 11.5 13.1 90 0.9 WNW 22 44 12 24 1016.6 - 6.2
03/04:30am 15.1 12.5 13.3 89 1.0 WNW 19 26 10 14 1016.6 - 5.8
03/04:00am 15.1 12.5 13.1 88 1.1 WNW 19 24 10 13 1016.7 - 5.8
03/03:30am 15.1 12.8 13.0 87 1.2 WNW 17 22 9 12 1016.5 - 5.8
03/03:00am 14.9 12.5 12.6 86 1.3 NW 17 28 9 15 1016.4 1016.4 5.8
03/02:30am 15.3 10.4 12.4 83 1.6 W 30 48 16 26 1016.0 - 5.8
03/02:07am 15.3 10.9 12.8 85 1.4 W 28 46 15 25 1015.6 - 5.8
03/02:00am 15.3 10.9 12.8 85 1.4 W 28 37 15 20 1015.7 - 5.8
03/01:30am 15.2 11.1 12.7 85 1.4 W 26 33 14 18 1016.0 - 5.8
03/01:00am 15.2 11.4 12.5 84 1.5 W 24 32 13 17 1016.0 - 5.8
03/12:30am 15.2 12.2 12.1 82 1.7 W 19 26 10 14 1016.1 - 5.8
03/12:00am 15.2 12.2 12.1 82 1.7 W 19 26 10 14 1016.3 1016.3 5.8
 
Date/Time
EST
Temp
°C
App
Temp
°C
Dew
Point
Rel
Hum
%
Delta-T
°C
Wind Press
QNH
hPa
Press
MSL
hPa
Rain
since 9 am
mm
Dir
 
Spd
km/h
Gust
km/h
Spd
kts
Gust
kts
02/11:30pm 15.3 11.2 12.6 84 1.5 WNW 26 32 14 17 1016.3 - 5.8
02/11:00pm 15.3 11.4 13.3 88 1.1 W 26 32 14 17 1016.3 - 5.8
02/10:30pm 15.1 11.2 13.3 89 1.0 W 26 33 14 18 1016.4 - 5.8
02/10:00pm 16.2 12.3 13.3 83 1.6 W 26 37 14 20 1016.0 - 5.8
02/09:30pm 16.7 13.5 13.0 79 2.1 WNW 22 30 12 16 1015.7 - 5.8
02/09:00pm 18.8 15.8 12.5 67 3.5 NNW 20 32 11 17 1015.6 1015.6 5.8
02/08:30pm 18.8 15.2 13.0 69 3.3 NNW 24 37 13 20 1015.5 - 5.8
02/08:00pm 18.0 15.0 13.7 76 2.5 N 22 30 12 16 1015.4 - 5.8
02/07:30pm 17.4 14.3 13.5 78 2.2 NNW 22 32 12 17 1015.3 - 5.6
02/07:00pm 17.4 12.0 12.7 74 2.6 W 33 56 18 30 1015.6 - 1.6
02/06:58pm 17.9 13.5 12.8 72 2.9 W 28 56 15 30 1015.2 - 0.0
02/06:30pm 18.4 16.2 13.3 72 2.9 N 17 22 9 12 1015.2 - 0.0
02/06:00pm 18.5 16.6 13.1 71 3.1 N 15 20 8 11 1015.0 1015.0 0.0
02/05:30pm 18.8 17.7 13.0 69 3.3 N 11 17 6 9 1015.0 - 0.0
02/05:00pm 19.0 17.9 13.2 69 3.3 N 11 19 6 10 1014.8 - 0.0
02/04:30pm 19.5 17.9 12.7 65 3.8 N 13 22 7 12 1014.7 - 0.0
02/04:00pm 19.6 17.6 12.8 65 3.8 N 15 24 8 13 1014.8 - 0.0
02/03:30pm 19.7 17.6 12.5 63 4.1 N 15 26 8 14 1014.7 - 0.0
02/03:00pm 19.9 16.4 12.2 61 4.3 NNW 22 39 12 21 1014.6 1014.6 0.0
02/02:30pm 19.9 16.9 12.4 62 4.2 N 20 39 11 21 1014.6 - 0.0
02/02:00pm 19.7 15.4 12.2 62 4.2 NNW 26 41 14 22 1014.5 - 0.0
02/01:30pm 19.6 15.5 12.8 65 3.8 NNW 26 43 14 23 1014.8 - 0.0
02/01:00pm 19.5 17.0 14.1 71 3.1 NNW 20 33 11 18 1015.1 - 0.0
02/12:30pm 16.5 14.9 14.9 90 0.9 N 17 20 9 11 1015.7 - 0.0
02/12:00pm 17.0 14.8 14.5 85 1.4 N 19 28 10 15 1016.4 1016.4 0.0
02/11:30am 18.3 16.4 15.7 85 1.5 N 20 28 11 15 1016.7 - 0.0
02/11:00am 16.3 14.1 15.0 92 0.8 NNE 20 24 11 13 1017.3 - 0.0
02/10:30am 16.5 14.4 15.2 92 0.8 NNE 20 28 11 15 1017.8 - 0.0
02/10:00am 16.1 13.7 14.5 90 0.9 NNE 20 26 11 14 1018.2 - 0.0
02/09:30am 16.1 13.7 13.9 87 1.2 NNE 19 26 10 14 1018.6 - 0.0

Other Formats:

Comma delimited format used in spreadsheet applications
http://www.bom.gov.au/fwo/IDV60801/IDV60801.94893.axf

JavaScript Object Notation format (JSON) in row-major order
http://www.bom.gov.au/fwo/IDV60801/IDV60801.94893.json